Terminal Aerodrome Forecast
Issued by NWS Nashville, TN

Home | Current Version | Previous Version | Text Only | Print | Product List | Glossary On
Versions: 1 2 3 4 5 6 7 8 9 10 11 12 13 14 15 16 17 18 19 20 21 22 23 24
151
FTUS44 KOHX 180331 AAA
TAFBNA
TAF AMD
KBNA 180331Z 1804/1824 18012G22KT P6SM SCT050 BKN080
     FM180600 18016G26KT P6SM OVC050 WS020/20050KT
     FM181500 20020G32KT P6SM VCSH BKN025
     FM182000 22025G35KT 3SM SHRA OVC015
     FM182300 30022G32KT P6SM VCSH OVC015=

USA.gov is the U.S. government's official web portal to all federal, state and local government web resources and services.